Boody, Illinois
Current Conditions -  °F | °C
As of 7:54 AM on Friday 24 Oct 2014 (Local Time) from KDEC Reporting Station
Broken Clouds Broken Clouds  
Wind Chill: 49°   Ceiling: 3400
Heat Index: 49°   Visibility: 9mi
Dew Point: 45°   Wind: 3mph
Humidity: 86%   Direction: 260°W
Pressure: 30.1"   Gusts: NA
Location:  39.77°N, 89.05°W
Report Text: KDEC 241254Z 26003KT 9SM BKN034 09/07 A3010 RMK AO2 SLP194 T00940072
Loading
Personal Weather Stations






























Interactive Weather Map
Tropical Storm Tracking
New forecast layout! Learn more

10-Day Weather Forecast

Advertisements
Track Severe Weather on mobile